Weather History for Sedona, AZ

Change the Weather History Date:

Thursday, October 25, 2012

  Actual Average Record
Temperature  
Mean Temperature 60 °F -  
Max Temperature 71 °F 74 °F 75 °F (2013)
Min Temperature 50 °F 44 °F 50 °F (2012)
Degree Days  
Heating Degree Days 4    
Growing Degree Days 10 (Base 50)    
Moisture  
Dew Point 17 °F    
Average Humidity 20    
Maximum Humidity 26    
Minimum Humidity 15    
Precipitation  
Precipitation 0.00 in - - ()
Sea Level Pressure  
Sea Level Pressure 30.12 in    
Wind  
Wind Speed 9 mph (NE)    
Max Wind Speed 16 mph    
Max Gust Speed 21 mph    
Visibility 10 miles    
Events      
Averages and records for this station are not official NWS values.
T = Trace of Precipitation, MM = Missing Value Source: NWS Daily Summary

Daily Weather History Graph

Daily Weather History Graph

Search for Another Location

Airport:

Trip Planner

Search our weather history database for the weather conditions in past years. The results will help you decide how hot, cold, wet, or windy it might be!

Date:

Astronomy

Oct. 25, 2012 Rise Set
Actual Time 6:42 AM MST 5:39 PM MST
Civil Twilight 6:16 AM MST 6:05 PM MST
Nautical Twilight 5:46 AM MST 6:35 PM MST
Astronomical Twilight 5:17 AM MST 7:04 PM MST
Moon 3:20 PM MST (10/25) 2:50 AM MST (10/25)
Length of Visible Light 11h 49m
Length of Day
10h 57m
Waxing Gibbous, 85% of the Moon is Illuminated
Oct 25
Waxing Gibbous
Oct 29
Full
Nov 6
Last Quarter
Nov 13
New
Nov 20
First Quarter

Hourly Weather History & Observations

Time (MST) Temp. Dew Point Humidity Pressure Visibility Wind Dir Wind Speed Gust Speed Precip Events Conditions
12:35 AM 53.6 °F 12.2 °F 19% 30.10 in 10.0 mi ENE 9.2 mph - N/A   Clear
12:55 AM 53.6 °F 12.2 °F 19% 30.10 in 10.0 mi NE 9.2 mph - N/A   Clear
1:15 AM 51.8 °F 12.2 °F 21% 30.10 in 10.0 mi NE 8.1 mph - N/A   Clear
1:35 AM 53.6 °F 12.2 °F 19% 30.11 in 10.0 mi NE 9.2 mph - N/A   Clear
1:55 AM 51.8 °F 12.2 °F 21% 30.10 in 10.0 mi ENE 13.8 mph - N/A   Clear
2:15 AM 51.8 °F 12.2 °F 21% 30.10 in 10.0 mi NE 10.4 mph 18.4 mph N/A   Clear
2:35 AM 51.8 °F 12.2 °F 21% 30.10 in 10.0 mi NE 11.5 mph 16.1 mph N/A   Clear
2:55 AM 51.8 °F 12.2 °F 21% 30.11 in 10.0 mi NE 10.4 mph - N/A   Clear
3:15 AM 51.8 °F 12.2 °F 21% 30.10 in 10.0 mi NE 10.4 mph - N/A   Clear
3:35 AM 51.8 °F 12.2 °F 21% 30.11 in 10.0 mi NE 10.4 mph - N/A   Clear
3:55 AM 51.8 °F 12.2 °F 21% 30.11 in 10.0 mi NE 9.2 mph - N/A   Clear
4:15 AM 50.0 °F 12.2 °F 22% 30.12 in 10.0 mi NE 10.4 mph - N/A   Clear
4:35 AM 50.0 °F 12.2 °F 22% 30.13 in 10.0 mi NE 9.2 mph - N/A   Clear
4:55 AM 50.0 °F 12.2 °F 22% 30.13 in 10.0 mi NE 10.4 mph - N/A   Clear
5:15 AM 50.0 °F 12.2 °F 22% 30.14 in 10.0 mi NE 9.2 mph - N/A   Clear
5:35 AM 50.0 °F 12.2 °F 22% 30.14 in 10.0 mi NE 10.4 mph - N/A   Clear
5:55 AM 50.0 °F 12.2 °F 22% 30.14 in 10.0 mi NE 11.5 mph - N/A   Clear
6:35 AM 50.0 °F 12.2 °F 22% 30.15 in 10.0 mi NE 10.4 mph - N/A   Clear
6:55 AM 50.0 °F 12.2 °F 22% 30.15 in 10.0 mi NE 9.2 mph - N/A   Clear
7:15 AM 50.0 °F 12.2 °F 22% 30.15 in 10.0 mi NE 10.4 mph - N/A   Clear
7:55 AM 53.6 °F 15.8 °F 22% 30.17 in 10.0 mi ESE 5.8 mph - N/A   Clear
8:15 AM 53.6 °F 15.8 °F 22% 30.17 in 10.0 mi East 5.8 mph - N/A   Clear
8:35 AM 53.6 °F 15.8 °F 22% 30.17 in 10.0 mi East 3.5 mph - N/A   Clear
8:55 AM 55.4 °F 17.6 °F 23% 30.18 in 10.0 mi Calm Calm - N/A   Clear
9:15 AM 55.4 °F 19.4 °F 25% 30.18 in 10.0 mi South 3.5 mph - N/A   Clear
9:35 AM 59.0 °F 17.6 °F 20% 30.18 in 10.0 mi SSE 3.5 mph - N/A   Clear
10:15 AM 60.8 °F 17.6 °F 19% 30.18 in 10.0 mi Calm Calm - N/A   Clear
10:35 AM 60.8 °F 17.6 °F 19% 30.17 in 10.0 mi South 3.5 mph - N/A   Clear
10:55 AM 62.6 °F 17.6 °F 18% 30.17 in 10.0 mi SW 3.5 mph - N/A   Clear
11:15 AM 62.6 °F 15.8 °F 16% 30.16 in 10.0 mi Calm Calm - N/A   Clear
11:35 AM 64.4 °F 17.6 °F 16% 30.15 in 10.0 mi SSW 4.6 mph - N/A   Clear
11:55 AM 64.4 °F 17.6 °F 16% 30.14 in 10.0 mi West 4.6 mph - N/A   Clear
12:15 PM 64.4 °F 17.6 °F 16% 30.13 in 10.0 mi SW 6.9 mph - N/A   Clear
12:35 PM 66.2 °F 17.6 °F 15% 30.12 in 10.0 mi South 8.1 mph - N/A   Clear
12:55 PM 66.2 °F 17.6 °F 15% 30.11 in 10.0 mi WSW 3.5 mph - N/A   Clear
1:15 PM 68.0 °F 19.4 °F 16% 30.10 in 10.0 mi WNW 6.9 mph - N/A   Clear
1:35 PM 68.0 °F 19.4 °F 16% 30.10 in 10.0 mi WSW 3.5 mph - N/A   Clear
1:55 PM 69.8 °F 19.4 °F 15% 30.09 in 10.0 mi SW 8.1 mph - N/A   Clear
2:15 PM 69.8 °F 19.4 °F 15% 30.08 in 10.0 mi West 5.8 mph - N/A   Clear
2:35 PM 69.8 °F 19.4 °F 15% 30.08 in 10.0 mi South 5.8 mph - N/A   Clear
2:55 PM 69.8 °F 19.4 °F 15% 30.07 in 10.0 mi South 9.2 mph - N/A   Clear
3:15 PM 71.6 °F 21.2 °F 15% 30.08 in 10.0 mi SW 8.1 mph - N/A   Clear
3:35 PM 71.6 °F 21.2 °F 15% 30.08 in 10.0 mi SSW 5.8 mph - N/A   Clear
3:55 PM 71.6 °F 21.2 °F 15% 30.07 in 10.0 mi SSE 4.6 mph - N/A   Clear
4:15 PM 71.6 °F 21.2 °F 15% 30.07 in 10.0 mi SSW 3.5 mph - N/A   Clear
4:35 PM 69.8 °F 21.2 °F 16% 30.07 in 10.0 mi NW 9.2 mph - N/A   Clear
4:55 PM 69.8 °F 21.2 °F 16% 30.07 in 10.0 mi WNW 6.9 mph - N/A   Clear
5:15 PM 68.0 °F 21.2 °F 17% 30.07 in 10.0 mi West 8.1 mph - N/A   Clear
5:35 PM 66.2 °F 21.2 °F 18% 30.07 in 10.0 mi WNW 8.1 mph - N/A   Clear
5:55 PM 64.4 °F 21.2 °F 19% 30.07 in 10.0 mi NW 9.2 mph - N/A   Clear
6:15 PM 64.4 °F 21.2 °F 19% 30.09 in 10.0 mi NNW 6.9 mph - N/A   Clear
6:35 PM 62.6 °F 23.0 °F 22% 30.09 in 10.0 mi North 9.2 mph - N/A   Clear
6:55 PM 62.6 °F 23.0 °F 22% 30.10 in 10.0 mi NE 10.4 mph - N/A   Clear
7:15 PM 62.6 °F 23.0 °F 22% 30.11 in 10.0 mi NNE 9.2 mph - N/A   Clear
7:35 PM 60.8 °F 23.0 °F 23% 30.11 in 10.0 mi ENE 8.1 mph 16.1 mph N/A   Clear
7:55 PM 62.6 °F 21.2 °F 20% 30.12 in 10.0 mi ENE 10.4 mph - N/A   Clear
8:35 PM 60.8 °F 21.2 °F 22% 30.14 in 10.0 mi NE 10.4 mph - N/A   Clear
8:55 PM 59.0 °F 21.2 °F 23% 30.14 in 10.0 mi NE 10.4 mph - N/A   Clear
9:15 PM 59.0 °F 21.2 °F 23% 30.14 in 10.0 mi NE 16.1 mph - N/A   Clear
9:35 PM 57.2 °F 21.2 °F 25% 30.14 in 10.0 mi NE 12.7 mph 18.4 mph N/A   Clear
10:15 PM 55.4 °F 21.2 °F 26% 30.15 in 10.0 mi NE 12.7 mph 17.3 mph N/A   Clear
10:35 PM 57.2 °F 19.4 °F 23% 30.17 in 10.0 mi NE 11.5 mph - N/A   Clear
10:55 PM 55.4 °F 19.4 °F 25% 30.17 in 10.0 mi ENE 9.2 mph 16.1 mph N/A   Clear
11:15 PM 55.4 °F 19.4 °F 25% 30.17 in 10.0 mi East 12.7 mph 20.7 mph N/A   Clear
11:35 PM 55.4 °F 19.4 °F 25% 30.17 in 10.0 mi ENE 12.7 mph 20.7 mph N/A   Clear
11:55 PM 55.4 °F 19.4 °F 25% 30.18 in 10.0 mi ENE 15.0 mph 19.6 mph N/A   Clear